createdAt,value
2019-01-24T00:01:00.275Z,27.53
2019-01-24T00:03:27.767Z,27.90
2019-01-24T00:05:55.308Z,27.10
2019-01-24T00:08:23.171Z,25.90
2019-01-24T00:10:50.695Z,27.30
2019-01-24T00:13:18.801Z,27.67
2019-01-24T00:15:46.344Z,27.17
2019-01-24T00:18:14.984Z,28.10
2019-01-24T00:20:42.677Z,28.43
2019-01-24T00:23:10.154Z,25.00
2019-01-24T00:25:37.665Z,25.93
2019-01-24T00:28:05.210Z,27.53
2019-01-24T00:30:33.136Z,28.40
2019-01-24T00:33:01.173Z,27.70
2019-01-24T00:35:28.778Z,26.60
2019-01-24T00:37:56.324Z,27.37
2019-01-24T00:40:23.871Z,26.97
2019-01-24T00:42:51.270Z,26.63
2019-01-24T00:45:19.884Z,24.67
2019-01-24T00:47:47.557Z,27.23
2019-01-24T00:50:15.257Z,25.87
2019-01-24T00:52:42.791Z,27.33
2019-01-24T00:55:11.197Z,27.40
2019-01-24T00:57:38.662Z,27.67
2019-01-24T01:00:10.276Z,25.77
2019-01-24T01:02:37.885Z,27.67
2019-01-24T01:05:06.454Z,27.83
2019-01-24T01:07:34.091Z,27.97
2019-01-24T01:10:01.646Z,25.97
2019-01-24T01:12:29.472Z,26.80
2019-01-24T01:14:57.050Z,27.10
2019-01-24T01:17:24.629Z,26.53
2019-01-24T01:19:52.116Z,27.47
2019-01-24T01:22:19.656Z,28.43
2019-01-24T01:24:47.153Z,28.67
2019-01-24T01:27:14.697Z,25.70
2019-01-24T01:29:42.375Z,28.53
2019-01-24T01:32:09.892Z,28.00
2019-01-24T01:34:37.460Z,28.50
2019-01-24T01:37:06.043Z,27.20
2019-01-24T01:39:33.600Z,26.63
2019-01-24T01:42:01.078Z,26.53
2019-01-24T01:44:28.598Z,25.80
2019-01-24T01:46:56.159Z,27.87
2019-01-24T01:49:23.698Z,27.73
2019-01-24T01:51:51.233Z,26.60
2019-01-24T01:54:18.722Z,29.50
2019-01-24T01:56:46.285Z,28.43
2019-01-24T01:59:13.904Z,26.90
2019-01-24T02:01:41.486Z,27.67
2019-01-24T02:04:09.012Z,30.37
2019-01-24T02:06:36.393Z,30.30
2019-01-24T02:09:07.919Z,27.87
2019-01-24T02:11:35.563Z,26.83
2019-01-24T02:14:03.494Z,27.53
2019-01-24T02:16:30.968Z,27.83
2019-01-24T02:18:58.880Z,28.87
2019-01-24T02:21:26.389Z,28.77
2019-01-24T02:23:53.828Z,28.27
2019-01-24T02:26:21.348Z,28.07
2019-01-24T02:28:48.862Z,28.37
2019-01-24T02:31:16.367Z,30.07
2019-01-24T02:33:43.903Z,29.20
2019-01-24T02:36:11.454Z,29.23
2019-01-24T02:38:38.931Z,27.93
2019-01-24T02:41:06.919Z,28.73
2019-01-24T02:43:34.411Z,29.30
2019-01-24T02:46:01.798Z,28.73
2019-01-24T02:48:29.341Z,29.53
2019-01-24T02:50:56.906Z,30.93
2019-01-24T02:53:24.535Z,28.83
2019-01-24T02:55:52.097Z,29.53
2019-01-24T02:58:19.465Z,29.87
2019-01-24T03:00:47.015Z,26.73
2019-01-24T03:03:14.635Z,27.80
2019-01-24T03:05:42.145Z,28.03
2019-01-24T03:08:09.750Z,28.03
2019-01-24T03:10:37.353Z,28.23
2019-01-24T03:13:04.933Z,28.70
2019-01-24T03:15:32.860Z,30.20
2019-01-24T03:18:00.446Z,27.73
2019-01-24T03:20:27.971Z,29.33
2019-01-24T03:22:55.753Z,25.60
2019-01-24T03:25:24.184Z,27.97
2019-01-24T03:27:51.791Z,28.73
2019-01-24T03:30:20.695Z,28.37
2019-01-24T03:32:49.501Z,27.87
2019-01-24T03:35:27.266Z,28.70
2019-01-24T03:37:54.769Z,26.77
2019-01-24T03:40:22.661Z,26.13
2019-01-24T03:42:50.168Z,26.60
2019-01-24T03:45:17.684Z,29.87
2019-01-24T03:47:46.292Z,26.30
2019-01-24T03:50:19.428Z,26.87
2019-01-24T03:52:47.263Z,28.37
2019-01-24T03:55:15.932Z,27.37
2019-01-24T03:57:43.813Z,25.57
2019-01-24T04:00:13.987Z,27.23
2019-01-24T04:02:41.364Z,27.03
2019-01-24T04:05:12.074Z,27.80
2019-01-24T04:07:38.644Z,25.13
2019-01-24T04:10:09.220Z,26.20
2019-01-24T04:12:36.706Z,25.83
2019-01-24T04:15:05.243Z,25.93
2019-01-24T04:17:32.613Z,26.20
2019-01-24T04:20:00.150Z,26.73
2019-01-24T04:22:27.799Z,29.13
2019-01-24T04:24:55.288Z,28.37
2019-01-24T04:27:22.620Z,28.67
2019-01-24T04:29:51.058Z,29.27
2019-01-24T04:32:18.570Z,27.87
2019-01-24T04:34:45.910Z,27.80
2019-01-24T04:37:13.386Z,27.77
2019-01-24T04:39:41.490Z,27.40
2019-01-24T04:42:08.932Z,29.37
2019-01-24T04:44:36.412Z,28.57
2019-01-24T04:47:03.933Z,27.13
2019-01-24T04:49:31.402Z,28.23
2019-01-24T04:51:58.859Z,27.10
2019-01-24T04:54:26.346Z,29.63
2019-01-24T04:56:53.792Z,28.67
2019-01-24T04:59:21.251Z,28.73
2019-01-24T05:01:48.587Z,26.37
2019-01-24T05:04:16.051Z,26.97
2019-01-24T05:06:43.580Z,30.17
2019-01-24T05:09:11.055Z,30.23
2019-01-24T05:11:38.554Z,28.73
2019-01-24T05:14:05.978Z,28.33
2019-01-24T05:16:33.342Z,28.40
2019-01-24T05:19:00.842Z,30.23
2019-01-24T05:21:28.362Z,29.87
2019-01-24T05:23:55.815Z,30.57
2019-01-24T05:26:23.329Z,30.57
2019-01-24T05:28:50.863Z,31.47
2019-01-24T05:31:18.336Z,28.57
2019-01-24T05:33:45.727Z,29.20
2019-01-24T05:36:13.177Z,28.93
2019-01-24T05:38:40.663Z,30.23
2019-01-24T05:41:08.142Z,29.60
2019-01-24T05:43:35.629Z,30.70
2019-01-24T05:46:03.223Z,27.90
2019-01-24T05:48:30.699Z,27.90
2019-01-24T05:50:58.185Z,29.10
2019-01-24T05:53:25.796Z,28.43
2019-01-24T05:55:53.274Z,28.07
2019-01-24T05:58:20.718Z,27.73
2019-01-24T06:00:48.288Z,28.37
2019-01-24T06:03:16.956Z,28.30
2019-01-24T06:05:44.890Z,29.53
2019-01-24T06:08:12.912Z,30.63
2019-01-24T06:10:40.416Z,29.07
2019-01-24T06:13:07.869Z,30.33
2019-01-24T06:15:35.242Z,29.30
2019-01-24T06:18:02.779Z,33.43
2019-01-24T06:20:30.598Z,30.47
2019-01-24T06:22:58.120Z,31.20
2019-01-24T06:25:25.587Z,31.27
2019-01-24T06:27:52.963Z,29.60
2019-01-24T06:30:20.610Z,27.90
2019-01-24T06:32:48.133Z,28.73
2019-01-24T06:35:15.597Z,29.10
2019-01-24T06:37:43.045Z,31.37
2019-01-24T06:40:11.156Z,30.10
2019-01-24T06:42:39.590Z,30.47
2019-01-24T06:45:10.450Z,29.33
2019-01-24T06:47:38.183Z,29.40
2019-01-24T06:50:08.009Z,29.63
2019-01-24T06:52:35.494Z,28.97
2019-01-24T06:55:04.299Z,30.70
2019-01-24T06:57:31.826Z,30.67
2019-01-24T06:59:59.235Z,28.80
2019-01-24T07:02:26.691Z,28.60
2019-01-24T07:04:54.065Z,29.33
2019-01-24T07:07:21.933Z,30.50
2019-01-24T07:09:49.762Z,32.93
2019-01-24T07:12:17.282Z,36.53
2019-01-24T07:14:44.843Z,31.80
2019-01-24T07:17:12.293Z,30.50
2019-01-24T07:19:39.915Z,30.17
2019-01-24T07:22:08.123Z,33.47
2019-01-24T07:24:35.835Z,32.27
2019-01-24T07:27:03.165Z,28.23
2019-01-24T07:29:30.984Z,30.93
2019-01-24T07:31:58.520Z,30.97
2019-01-24T07:34:26.073Z,32.03
2019-01-24T07:36:53.536Z,33.87
2019-01-24T07:39:20.860Z,32.70
2019-01-24T07:41:48.474Z,38.27
2019-01-24T07:44:16.198Z,32.90
2019-01-24T07:46:43.716Z,34.03
2019-01-24T07:49:11.059Z,31.37
2019-01-24T07:51:38.550Z,30.23
2019-01-24T07:54:06.027Z,30.27
2019-01-24T07:56:33.522Z,31.33
2019-01-24T07:59:00.949Z,31.27
2019-01-24T08:01:28.341Z,31.20
2019-01-24T08:03:56.017Z,30.03
2019-01-24T08:06:23.527Z,31.97
2019-01-24T08:08:51.016Z,29.40
2019-01-24T08:11:18.398Z,32.17
2019-01-24T08:13:46.535Z,29.30
2019-01-24T08:16:13.979Z,30.37
2019-01-24T08:18:41.667Z,30.43
2019-01-24T08:21:08.998Z,29.53
2019-01-24T08:23:36.353Z,31.53
2019-01-24T08:26:03.884Z,30.33
2019-01-24T08:28:31.378Z,30.40
2019-01-24T08:30:58.853Z,32.27
2019-01-24T08:33:26.342Z,31.10
2019-01-24T08:35:53.887Z,30.43
2019-01-24T08:38:21.354Z,30.60
2019-01-24T08:40:48.827Z,31.20
2019-01-24T08:43:16.330Z,30.03
2019-01-24T08:45:43.767Z,30.33
2019-01-24T08:48:11.316Z,28.90
2019-01-24T08:50:38.666Z,28.70
2019-01-24T08:53:06.258Z,28.43
2019-01-24T08:55:38.904Z,29.40
2019-01-24T08:58:07.225Z,31.70
2019-01-24T09:00:34.721Z,28.17
2019-01-24T09:03:02.494Z,29.30
2019-01-24T09:05:29.974Z,28.93
2019-01-24T09:07:57.680Z,30.70
2019-01-24T09:10:30.623Z,26.67
2019-01-24T09:12:58.442Z,29.03
2019-01-24T09:15:26.086Z,28.37
2019-01-24T09:17:53.522Z,28.13
2019-01-24T09:20:21.030Z,27.60
2019-01-24T09:22:54.966Z,27.80
2019-01-24T09:25:17.934Z,26.87
2019-01-24T09:27:45.456Z,27.87
2019-01-24T09:30:16.479Z,25.80
2019-01-24T09:32:44.431Z,26.40
2019-01-24T09:35:12.064Z,27.53
2019-01-24T09:37:39.549Z,27.27
2019-01-24T09:40:08.846Z,26.83
2019-01-24T09:42:36.228Z,27.03
2019-01-24T09:45:06.397Z,29.83
2019-01-24T09:47:33.902Z,27.17
2019-01-24T09:50:01.392Z,26.83
2019-01-24T09:52:28.799Z,28.80
2019-01-24T09:54:56.254Z,25.20
2019-01-24T09:57:23.609Z,29.23
2019-01-24T09:59:51.203Z,27.00
2019-01-24T10:02:18.681Z,27.37
2019-01-24T10:04:46.291Z,28.23
2019-01-24T10:07:13.745Z,28.83
2019-01-24T10:09:41.222Z,28.00
2019-01-24T10:12:08.655Z,26.33
2019-01-24T10:14:36.139Z,26.80
2019-01-24T10:17:03.619Z,26.00
2019-01-24T10:19:31.121Z,28.17
2019-01-24T10:21:58.465Z,27.30
2019-01-24T10:24:25.956Z,27.03
2019-01-24T10:26:53.433Z,25.97
2019-01-24T10:29:20.917Z,25.90
2019-01-24T10:31:48.509Z,25.77
2019-01-24T10:34:15.949Z,25.33
2019-01-24T10:36:43.436Z,25.80
2019-01-24T10:39:10.949Z,27.20
2019-01-24T10:41:38.436Z,26.60
2019-01-24T10:44:05.781Z,24.93
2019-01-24T10:46:33.598Z,26.90
2019-01-24T10:49:01.147Z,24.70
2019-01-24T10:51:29.037Z,26.73
2019-01-24T10:53:56.520Z,25.97
2019-01-24T10:56:24.022Z,26.70
2019-01-24T10:58:51.523Z,25.03
2019-01-24T11:01:19.057Z,25.40
2019-01-24T11:03:46.717Z,27.37
2019-01-24T11:06:14.222Z,29.90
2019-01-24T11:08:41.729Z,27.53
2019-01-24T11:11:09.243Z,25.73
2019-01-24T11:13:36.760Z,26.40
2019-01-24T11:16:04.438Z,27.83
2019-01-24T11:18:31.951Z,29.63
2019-01-24T11:21:04.217Z,27.57
2019-01-24T11:23:31.818Z,28.03
2019-01-24T11:25:59.350Z,30.10
2019-01-24T11:28:27.507Z,30.27
2019-01-24T11:30:55.286Z,30.40
2019-01-24T11:33:23.406Z,29.37
2019-01-24T11:35:51.318Z,27.37
2019-01-24T11:38:18.789Z,28.20
2019-01-24T11:40:46.462Z,25.47
2019-01-24T11:43:13.960Z,26.63
2019-01-24T11:45:43.032Z,29.00
2019-01-24T11:48:10.697Z,29.37
2019-01-24T11:50:38.244Z,26.33
2019-01-24T11:53:05.760Z,27.77
2019-01-24T11:55:33.407Z,29.47
2019-01-24T11:58:00.904Z,32.17
2019-01-24T12:00:35.892Z,25.37
2019-01-24T12:03:03.835Z,25.87
2019-01-24T12:05:32.964Z,25.40
2019-01-24T12:08:00.336Z,27.13
2019-01-24T12:10:27.854Z,29.17
2019-01-24T12:12:55.423Z,28.07
2019-01-24T12:15:23.187Z,27.17
2019-01-24T12:17:51.016Z,27.97
2019-01-24T12:20:20.418Z,26.47
2019-01-24T12:22:48.348Z,27.87
2019-01-24T12:25:15.861Z,29.00
2019-01-24T12:27:43.500Z,27.03
2019-01-24T12:30:14.558Z,27.73
2019-01-24T12:32:42.158Z,27.77
2019-01-24T12:35:10.002Z,26.77
2019-01-24T12:37:37.519Z,26.87
2019-01-24T12:40:08.089Z,26.93
2019-01-24T12:42:35.979Z,26.30
2019-01-24T12:45:04.616Z,26.93
2019-01-24T12:47:32.138Z,27.97
2019-01-24T12:50:00.061Z,27.37
2019-01-24T12:52:27.869Z,27.37
2019-01-24T12:54:55.737Z,25.40
2019-01-24T12:57:23.259Z,26.80
2019-01-24T12:59:50.791Z,28.47
2019-01-24T13:02:18.272Z,26.90
2019-01-24T13:04:45.912Z,26.57
2019-01-24T13:07:18.393Z,27.93
2019-01-24T13:09:43.708Z,28.10
2019-01-24T13:12:11.224Z,29.13
2019-01-24T13:14:38.704Z,28.10
2019-01-24T13:17:06.501Z,27.50
2019-01-24T13:19:34.023Z,30.00
2019-01-24T13:22:01.607Z,27.23
2019-01-24T13:24:29.116Z,28.53
2019-01-24T13:26:57.687Z,28.10
2019-01-24T13:29:25.544Z,25.63
2019-01-24T13:31:53.072Z,28.50
2019-01-24T13:34:20.495Z,26.63
2019-01-24T13:36:47.884Z,26.97
2019-01-24T13:39:15.459Z,26.70
2019-01-24T13:41:43.507Z,28.90
2019-01-24T13:44:11.890Z,27.87
2019-01-24T13:46:40.610Z,29.97
2019-01-24T13:49:08.301Z,29.33
2019-01-24T13:51:36.180Z,27.90
2019-01-24T13:54:03.693Z,28.07
2019-01-24T13:56:31.180Z,30.30
2019-01-24T13:58:58.709Z,27.50
2019-01-24T14:01:26.364Z,29.67
2019-01-24T14:04:06.171Z,29.20
2019-01-24T14:06:33.513Z,28.63
2019-01-24T14:09:00.879Z,28.20
2019-01-24T14:11:28.463Z,28.30
2019-01-24T14:13:55.828Z,27.67
2019-01-24T14:16:23.342Z,27.63
2019-01-24T14:18:50.916Z,28.03
2019-01-24T14:21:18.550Z,27.83
2019-01-24T14:23:46.137Z,28.37
2019-01-24T14:26:13.657Z,27.90
2019-01-24T14:28:41.466Z,26.77
2019-01-24T14:31:09.048Z,27.77
2019-01-24T14:33:36.602Z,27.40
2019-01-24T14:36:04.151Z,28.50
2019-01-24T14:38:31.711Z,28.07
2019-01-24T14:40:59.083Z,26.80
2019-01-24T14:43:27.475Z,25.50
2019-01-24T14:45:54.865Z,27.33
2019-01-24T14:48:22.896Z,28.10
2019-01-24T14:50:50.445Z,29.53
2019-01-24T14:53:17.909Z,27.37
2019-01-24T14:55:45.455Z,30.63
2019-01-24T14:58:12.986Z,28.27
2019-01-24T15:00:44.287Z,28.70
2019-01-24T15:03:11.769Z,29.60
2019-01-24T15:05:39.713Z,29.73
2019-01-24T15:08:08.370Z,28.67
2019-01-24T15:10:35.893Z,30.00
2019-01-24T15:13:05.065Z,28.40
2019-01-24T15:15:32.857Z,29.67
2019-01-24T15:18:00.379Z,29.97
2019-01-24T15:20:27.895Z,30.27
2019-01-24T15:22:55.401Z,27.40
2019-01-24T15:25:22.974Z,31.30
2019-01-24T15:27:50.502Z,31.83
2019-01-24T15:30:20.008Z,35.00
2019-01-24T15:32:47.523Z,37.17
2019-01-24T15:35:14.915Z,35.17
2019-01-24T15:37:42.447Z,33.20
2019-01-24T15:40:15.783Z,32.37
2019-01-24T15:42:43.377Z,33.97
2019-01-24T15:45:11.280Z,31.40
2019-01-24T15:47:38.815Z,31.10
2019-01-24T15:50:07.860Z,31.70
2019-01-24T15:52:35.358Z,29.53
2019-01-24T15:55:02.978Z,31.07
2019-01-24T15:57:30.433Z,31.33
2019-01-24T15:59:57.930Z,32.93
2019-01-24T16:02:25.523Z,35.00
2019-01-24T16:04:53.061Z,31.90
2019-01-24T16:07:20.444Z,31.23
2019-01-24T16:09:47.978Z,33.10
2019-01-24T16:12:15.524Z,31.17
2019-01-24T16:14:43.100Z,27.87
2019-01-24T16:17:10.567Z,27.90
2019-01-24T16:19:38.124Z,27.63
2019-01-24T16:22:05.639Z,26.60
2019-01-24T16:24:33.303Z,27.57
2019-01-24T16:27:01.857Z,29.47
2019-01-24T16:29:29.421Z,32.77
2019-01-24T16:31:56.920Z,28.83
2019-01-24T16:34:25.296Z,28.97
2019-01-24T16:36:52.829Z,29.17
2019-01-24T16:39:20.321Z,28.27
2019-01-24T16:41:47.855Z,27.10
2019-01-24T16:44:15.355Z,31.93
2019-01-24T16:46:42.908Z,29.60
2019-01-24T16:49:11.008Z,27.53
2019-01-24T16:51:38.598Z,27.30
2019-01-24T16:54:06.096Z,27.50
2019-01-24T16:56:33.594Z,28.73
2019-01-24T16:59:20.513Z,26.23
2019-01-24T17:01:48.394Z,24.57
2019-01-24T17:04:16.134Z,25.77
2019-01-24T17:06:43.667Z,26.60
2019-01-24T17:09:11.347Z,26.57
2019-01-24T17:11:38.765Z,27.90
2019-01-24T17:14:06.658Z,27.63
2019-01-24T17:16:34.220Z,28.50
2019-01-24T17:19:01.870Z,27.90
2019-01-24T17:21:29.733Z,29.47
2019-01-24T17:23:57.220Z,29.17
2019-01-24T17:26:24.740Z,28.77
2019-01-24T17:28:52.326Z,27.93
2019-01-24T17:31:19.893Z,26.03
2019-01-24T17:33:47.397Z,27.13
2019-01-24T17:36:14.789Z,26.63
2019-01-24T17:38:42.325Z,27.40
2019-01-24T17:41:09.830Z,26.73
2019-01-24T17:43:37.361Z,26.13
2019-01-24T17:46:04.858Z,27.57
2019-01-24T17:48:32.332Z,25.73
2019-01-24T17:50:59.753Z,32.23
2019-01-24T17:53:27.925Z,36.93
2019-01-24T17:55:55.349Z,28.90
2019-01-24T17:58:23.134Z,29.70
2019-01-24T18:00:52.280Z,29.00
2019-01-24T18:03:20.191Z,27.77
2019-01-24T18:05:47.680Z,30.07
2019-01-24T18:08:15.206Z,29.73
2019-01-24T18:10:42.718Z,28.17
2019-01-24T18:13:10.229Z,26.77
2019-01-24T18:15:37.837Z,27.47
2019-01-24T18:18:07.330Z,34.73
2019-01-24T18:20:34.938Z,28.43
2019-01-24T18:23:03.235Z,54.43
2019-01-24T18:25:31.405Z,38.90
2019-01-24T18:27:59.087Z,43.03
2019-01-24T18:30:26.970Z,35.93
2019-01-24T18:32:55.740Z,28.37
2019-01-24T18:35:23.563Z,30.63
2019-01-24T18:37:51.050Z,27.23
2019-01-24T18:40:20.348Z,27.47
2019-01-24T18:42:48.429Z,26.93
2019-01-24T18:45:27.583Z,32.57
2019-01-24T18:47:55.124Z,27.83
2019-01-24T18:50:48.701Z,38.93
2019-01-24T18:53:23.298Z,27.63
2019-01-24T18:55:50.818Z,28.67
2019-01-24T18:58:18.218Z,30.13
2019-01-24T19:00:46.599Z,26.67
2019-01-24T19:03:14.746Z,28.60
2019-01-24T19:05:43.069Z,38.03
2019-01-24T19:08:11.185Z,27.67
2019-01-24T19:10:38.779Z,34.47
2019-01-24T19:13:07.718Z,42.20
2019-01-24T19:15:35.379Z,29.23
2019-01-24T19:18:04.313Z,25.77
2019-01-24T19:20:32.084Z,24.97
2019-01-24T19:22:59.596Z,26.57
2019-01-24T19:25:26.959Z,29.20
2019-01-24T19:27:55.858Z,29.80
2019-01-24T19:30:26.104Z,26.97
2019-01-24T19:32:53.812Z,26.83
2019-01-24T19:35:21.868Z,28.50
2019-01-24T19:37:50.088Z,28.47
2019-01-24T19:40:18.891Z,25.77
2019-01-24T19:42:46.413Z,28.63
2019-01-24T19:45:16.411Z,28.93
2019-01-24T19:47:44.035Z,28.40
2019-01-24T19:50:13.977Z,25.87
2019-01-24T19:52:41.527Z,27.20
2019-01-24T19:55:09.723Z,25.60
2019-01-24T19:57:37.216Z,26.70
2019-01-24T20:00:08.508Z,30.03
2019-01-24T20:02:36.295Z,26.37
2019-01-24T20:05:05.259Z,27.37
2019-01-24T20:07:32.846Z,26.73
2019-01-24T20:10:01.290Z,26.87
2019-01-24T20:12:29.474Z,22.93
2019-01-24T20:14:56.998Z,22.50
2019-01-24T20:17:24.609Z,20.47
2019-01-24T20:19:52.587Z,22.17
2019-01-24T20:22:20.392Z,22.73
2019-01-24T20:24:48.264Z,21.23
2019-01-24T20:27:15.767Z,22.80
2019-01-24T20:29:43.292Z,22.63
2019-01-24T20:32:10.789Z,22.93
2019-01-24T20:34:38.335Z,19.70
2019-01-24T20:37:05.852Z,21.90
2019-01-24T20:39:33.489Z,21.70
2019-01-24T20:42:00.972Z,21.97
2019-01-24T20:44:28.771Z,21.33
2019-01-24T20:46:56.298Z,20.13
2019-01-24T20:49:23.807Z,22.47
2019-01-24T20:51:51.240Z,20.97
2019-01-24T20:54:18.783Z,20.53
2019-01-24T20:56:46.371Z,20.53
2019-01-24T20:59:13.782Z,21.87
2019-01-24T21:01:41.147Z,23.07
2019-01-24T21:04:08.766Z,21.33
2019-01-24T21:06:36.239Z,20.60
2019-01-24T21:09:07.392Z,20.90
2019-01-24T21:11:36.992Z,21.07
2019-01-24T21:14:04.606Z,20.07
2019-01-24T21:16:32.160Z,22.97
2019-01-24T21:18:59.681Z,21.73
2019-01-24T21:21:27.178Z,21.43
2019-01-24T21:23:55.887Z,23.33
2019-01-24T21:26:23.337Z,20.63
2019-01-24T21:28:50.897Z,22.97
2019-01-24T21:31:18.454Z,21.63
2019-01-24T21:33:45.958Z,21.20
2019-01-24T21:36:13.483Z,21.70
2019-01-24T21:38:41.059Z,23.30
2019-01-24T21:41:08.567Z,19.13
2019-01-24T21:43:36.107Z,22.80
2019-01-24T21:46:04.461Z,23.53
2019-01-24T21:48:32.413Z,26.10
2019-01-24T21:51:00.557Z,25.83
2019-01-24T21:53:27.913Z,21.33
2019-01-24T21:55:55.420Z,21.37
2019-01-24T21:58:22.990Z,19.43
2019-01-24T22:00:50.583Z,20.00
2019-01-24T22:03:18.276Z,21.23
2019-01-24T22:05:45.850Z,20.60
2019-01-24T22:08:13.372Z,21.67
2019-01-24T22:10:40.878Z,21.50
2019-01-24T22:13:08.428Z,21.00
2019-01-24T22:15:35.948Z,24.13
2019-01-24T22:18:04.140Z,24.67
2019-01-24T22:20:31.658Z,21.40
2019-01-24T22:22:59.210Z,22.97
2019-01-24T22:25:30.219Z,22.47
2019-01-24T22:27:57.593Z,22.03
2019-01-24T22:30:29.819Z,22.77
2019-01-24T22:32:57.295Z,23.10
2019-01-24T22:35:24.826Z,24.10
2019-01-24T22:37:52.404Z,22.77
2019-01-24T22:40:19.998Z,23.17
2019-01-24T22:42:47.540Z,21.70
2019-01-24T22:45:17.955Z,22.07
2019-01-24T22:47:45.497Z,22.13
2019-01-24T22:50:13.610Z,23.13
2019-01-24T22:52:42.724Z,21.03
2019-01-24T22:55:10.489Z,21.07
2019-01-24T22:57:38.154Z,22.03
2019-01-24T23:00:46.757Z,21.63
2019-01-24T23:03:19.014Z,21.53
2019-01-24T23:05:46.602Z,21.33
2019-01-24T23:08:14.140Z,24.00
2019-01-24T23:10:41.606Z,26.47
2019-01-24T23:13:09.173Z,22.13
2019-01-24T23:15:37.050Z,22.47
2019-01-24T23:18:05.024Z,23.33
2019-01-24T23:20:32.566Z,21.60
2019-01-24T23:23:00.043Z,20.40
2019-01-24T23:25:27.595Z,20.80
2019-01-24T23:27:55.213Z,22.33
2019-01-24T23:30:22.829Z,22.37
2019-01-24T23:32:51.088Z,21.73
2019-01-24T23:35:18.846Z,20.37
2019-01-24T23:37:52.320Z,21.10
2019-01-24T23:40:15.994Z,20.73
2019-01-24T23:42:43.745Z,19.33
2019-01-24T23:45:11.284Z,20.03
2019-01-24T23:47:39.228Z,19.67
2019-01-24T23:50:06.933Z,18.57
2019-01-24T23:52:35.563Z,19.53
2019-01-24T23:55:03.871Z,18.77
2019-01-24T23:57:31.369Z,20.60
2019-01-24T23:59:58.945Z,21.30
